Roth, North Dakota
Current Conditions -  °F | °C
As of 8:58 AM on Friday 24 Oct 2014 (Local Time) from KMIB Reporting Station
Overcast Overcast  
Wind Chill: 53°   Ceiling: 11000
Heat Index: 53°   Visibility: 10mi
Dew Point: 38°   Wind: 16mph
Humidity: 57%   Direction: 250°WSW
Pressure: 29.78"   Gusts: NA
Location:  48.9505°N, 100.734°W
Report Text: KMIB 241358Z AUTO 25014KT 10SM OVC110 12/04 A2978 RMK AO2 SLP093 T01170035 $
Loading
Personal Weather Stations






























Interactive Weather Map New forecast layout! Learn more

10-Day Weather Forecast

Advertisements
Track Severe Weather on mobile